createdAt,value
2023-03-18T00:01:44.583Z,6.87
2023-03-18T00:04:11.612Z,8.10
2023-03-18T00:06:38.988Z,7.30
2023-03-18T00:09:08.157Z,7.43
2023-03-18T00:11:36.148Z,7.83
2023-03-18T00:14:05.481Z,7.80
2023-03-18T00:16:32.641Z,8.10
2023-03-18T00:18:59.659Z,8.13
2023-03-18T00:21:27.388Z,7.30
2023-03-18T00:23:57.926Z,8.33
2023-03-18T00:26:27.187Z,8.53
2023-03-18T00:28:56.836Z,8.03
2023-03-18T00:31:24.902Z,9.23
2023-03-18T00:33:52.698Z,8.07
2023-03-18T00:36:25.821Z,8.30
2023-03-18T00:38:57.783Z,8.47
2023-03-18T00:41:27.595Z,8.00
2023-03-18T00:43:55.304Z,8.00
2023-03-18T00:46:31.152Z,7.83
2023-03-18T00:49:01.358Z,8.43
2023-03-18T00:51:31.659Z,8.43
2023-03-18T00:54:02.201Z,8.43
2023-03-18T00:56:31.402Z,8.77
2023-03-18T00:58:58.770Z,9.17
2023-03-18T01:01:29.341Z,7.60
2023-03-18T01:03:56.675Z,8.77
2023-03-18T01:06:28.519Z,8.43
2023-03-18T01:08:56.730Z,7.47
2023-03-18T01:11:24.737Z,8.17
2023-03-18T01:13:53.114Z,8.40
2023-03-18T01:16:21.907Z,9.40
2023-03-18T01:18:51.296Z,9.10
2023-03-18T01:21:18.508Z,10.33
2023-03-18T01:23:46.172Z,9.00
2023-03-18T01:26:13.312Z,9.20
2023-03-18T01:28:40.521Z,7.87
2023-03-18T01:31:08.406Z,8.60
2023-03-18T01:33:35.790Z,8.17
2023-03-18T01:36:04.141Z,9.37
2023-03-18T01:38:31.709Z,8.27
2023-03-18T01:41:00.723Z,8.43
2023-03-18T01:43:31.851Z,9.43
2023-03-18T01:46:01.082Z,10.37
2023-03-18T01:48:31.773Z,9.17
2023-03-18T01:51:10.701Z,8.53
2023-03-18T01:53:48.660Z,9.67
2023-03-18T01:56:17.285Z,9.03
2023-03-18T01:58:49.833Z,8.23
2023-03-18T02:01:54.034Z,9.23
2023-03-18T02:04:25.913Z,8.90
2023-03-18T02:06:56.289Z,9.20
2023-03-18T02:09:23.476Z,9.93
2023-03-18T02:11:51.828Z,8.93
2023-03-18T02:14:24.985Z,8.77
2023-03-18T02:17:04.699Z,8.43
2023-03-18T02:20:01.971Z,8.33
2023-03-18T02:22:42.461Z,8.50
2023-03-18T02:25:39.568Z,9.20
2023-03-18T02:28:21.898Z,9.83
2023-03-18T02:30:54.359Z,9.30
2023-03-18T02:33:23.977Z,9.37
2023-03-18T02:35:57.198Z,9.33
2023-03-18T02:38:24.361Z,11.33
2023-03-18T02:40:52.102Z,9.60
2023-03-18T02:43:21.177Z,9.40
2023-03-18T02:46:18.260Z,10.90
2023-03-18T02:48:46.572Z,10.90
2023-03-18T02:51:16.405Z,10.13
2023-03-18T02:53:44.584Z,9.73
2023-03-18T02:56:12.067Z,9.70
2023-03-18T02:58:39.416Z,10.73
2023-03-18T03:01:08.417Z,10.63
2023-03-18T03:03:36.556Z,11.73
2023-03-18T03:06:03.878Z,8.33
2023-03-18T03:08:31.041Z,11.07
2023-03-18T03:10:58.230Z,11.77
2023-03-18T03:13:25.495Z,11.27
2023-03-18T03:16:00.636Z,11.47
2023-03-18T03:18:28.650Z,11.53
2023-03-18T03:20:55.842Z,11.90
2023-03-18T03:23:25.978Z,12.00
2023-03-18T03:25:56.370Z,12.40
2023-03-18T03:28:27.320Z,12.30
2023-03-18T03:30:55.929Z,11.67
2023-03-18T03:33:23.792Z,12.87
2023-03-18T03:35:51.907Z,12.13
2023-03-18T03:38:19.256Z,12.73
2023-03-18T03:40:48.050Z,12.63
2023-03-18T03:43:16.125Z,12.47
2023-03-18T03:45:45.149Z,10.57
2023-03-18T03:48:12.879Z,12.17
2023-03-18T03:50:40.865Z,11.23
2023-03-18T03:53:08.596Z,10.43
2023-03-18T03:55:35.674Z,11.80
2023-03-18T03:58:02.945Z,10.63
2023-03-18T04:00:31.027Z,12.90
2023-03-18T04:02:58.495Z,11.23
2023-03-18T04:05:26.185Z,10.77
2023-03-18T04:07:53.852Z,10.30
2023-03-18T04:10:22.858Z,12.70
2023-03-18T04:12:50.565Z,12.00
2023-03-18T04:15:20.070Z,12.00
2023-03-18T04:17:47.766Z,12.53
2023-03-18T04:20:15.222Z,11.97
2023-03-18T04:22:42.516Z,11.90
2023-03-18T04:25:15.103Z,13.20
2023-03-18T04:27:42.974Z,12.37
2023-03-18T04:30:12.767Z,12.33
2023-03-18T04:32:40.117Z,13.03
2023-03-18T04:35:09.008Z,12.30
2023-03-18T04:37:37.461Z,11.50
2023-03-18T04:40:06.558Z,12.83
2023-03-18T04:42:33.951Z,12.97
2023-03-18T04:45:02.213Z,13.20
2023-03-18T04:47:29.477Z,14.27
2023-03-18T04:49:56.883Z,14.43
2023-03-18T04:52:24.743Z,13.80
2023-03-18T04:54:51.966Z,13.00
2023-03-18T04:57:19.778Z,13.37
2023-03-18T04:59:47.069Z,12.83
2023-03-18T05:02:14.575Z,11.70
2023-03-18T05:04:41.985Z,12.93
2023-03-18T05:07:10.961Z,12.07
2023-03-18T05:09:38.382Z,13.63
2023-03-18T05:12:05.875Z,12.57
2023-03-18T05:14:33.247Z,12.60
2023-03-18T05:17:00.442Z,13.00
2023-03-18T05:19:28.983Z,13.33
2023-03-18T05:21:56.275Z,13.27
2023-03-18T05:24:25.981Z,13.87
2023-03-18T05:26:53.384Z,13.47
2023-03-18T05:29:20.386Z,14.10
2023-03-18T05:31:47.567Z,13.47
2023-03-18T05:34:15.127Z,14.93
2023-03-18T05:36:42.806Z,14.33
2023-03-18T05:39:10.930Z,14.80
2023-03-18T05:41:39.005Z,14.73
2023-03-18T05:44:06.183Z,15.33
2023-03-18T05:46:34.053Z,13.60
2023-03-18T05:49:01.189Z,13.60
2023-03-18T05:51:28.200Z,14.07
2023-03-18T05:53:55.680Z,14.10
2023-03-18T05:56:22.967Z,14.20
2023-03-18T05:58:50.155Z,13.03
2023-03-18T06:01:17.244Z,13.17
2023-03-18T06:03:44.420Z,13.73
2023-03-18T06:06:11.616Z,14.70
2023-03-18T06:08:39.171Z,12.63
2023-03-18T06:11:06.923Z,13.60
2023-03-18T06:13:33.992Z,13.17
2023-03-18T06:16:01.704Z,13.57
2023-03-18T06:18:28.933Z,14.43
2023-03-18T06:20:59.100Z,11.80
2023-03-18T06:23:28.919Z,13.00
2023-03-18T06:25:56.711Z,12.77
2023-03-18T06:28:23.800Z,9.10
2023-03-18T06:30:51.013Z,13.47
2023-03-18T06:33:18.590Z,13.63
2023-03-18T06:35:48.349Z,12.33
2023-03-18T06:38:16.848Z,14.60
2023-03-18T06:40:45.278Z,13.50
2023-03-18T06:43:12.662Z,14.83
2023-03-18T06:45:40.348Z,14.37
2023-03-18T06:48:10.583Z,15.17
2023-03-18T06:50:39.784Z,14.47
2023-03-18T06:53:08.375Z,13.83
2023-03-18T06:55:35.874Z,14.27
2023-03-18T06:58:02.995Z,14.73
2023-03-18T07:00:32.000Z,15.43
2023-03-18T07:02:59.589Z,15.83
2023-03-18T07:05:26.658Z,13.80
2023-03-18T07:07:54.573Z,13.03
2023-03-18T07:10:25.490Z,13.23
2023-03-18T07:12:52.616Z,15.30
2023-03-18T07:15:21.929Z,12.47
2023-03-18T07:17:50.459Z,14.43
2023-03-18T07:20:17.916Z,13.00
2023-03-18T07:22:47.931Z,14.70
2023-03-18T07:25:21.811Z,14.27
2023-03-18T07:27:49.865Z,12.67
2023-03-18T07:30:18.183Z,14.43
2023-03-18T07:32:49.479Z,15.10
2023-03-18T07:35:16.916Z,14.00
2023-03-18T07:37:44.036Z,13.57
2023-03-18T07:40:15.482Z,12.37
2023-03-18T07:42:42.919Z,15.10
2023-03-18T07:45:10.819Z,13.77
2023-03-18T07:47:38.103Z,14.23
2023-03-18T07:50:08.247Z,13.07
2023-03-18T07:52:35.880Z,14.60
2023-03-18T07:55:04.493Z,13.73
2023-03-18T07:57:31.757Z,15.10
2023-03-18T08:00:02.063Z,14.43
2023-03-18T08:02:32.287Z,13.47
2023-03-18T08:05:00.661Z,15.33
2023-03-18T08:07:32.168Z,13.80
2023-03-18T08:10:02.994Z,13.00
2023-03-18T08:12:41.600Z,14.27
2023-03-18T08:15:16.572Z,12.87
2023-03-18T08:17:43.698Z,13.90
2023-03-18T08:20:12.512Z,14.63
2023-03-18T08:22:40.222Z,13.30
2023-03-18T08:25:10.804Z,13.60
2023-03-18T08:27:40.504Z,13.80
2023-03-18T08:30:08.559Z,14.57
2023-03-18T08:32:39.725Z,14.27
2023-03-18T08:35:07.586Z,15.17
2023-03-18T08:37:35.318Z,14.90
2023-03-18T08:40:02.720Z,14.33
2023-03-18T08:42:30.736Z,13.30
2023-03-18T08:45:00.542Z,12.57
2023-03-18T08:47:30.262Z,14.60
2023-03-18T08:49:57.832Z,13.50
2023-03-18T08:52:25.914Z,13.73
2023-03-18T08:54:52.952Z,15.53
2023-03-18T08:57:23.573Z,13.43
2023-03-18T08:59:51.364Z,13.70
2023-03-18T09:02:20.841Z,13.73
2023-03-18T09:04:49.263Z,13.87
2023-03-18T09:07:19.181Z,14.37
2023-03-18T09:09:46.421Z,13.37
2023-03-18T09:12:15.381Z,13.13
2023-03-18T09:14:44.320Z,13.43
2023-03-18T09:17:11.532Z,13.20
2023-03-18T09:19:39.322Z,13.87
2023-03-18T09:22:06.991Z,12.50
2023-03-18T09:24:35.127Z,14.07
2023-03-18T09:27:02.156Z,12.20
2023-03-18T09:29:29.437Z,12.60
2023-03-18T09:31:56.526Z,12.73
2023-03-18T09:34:26.588Z,13.60
2023-03-18T09:36:56.179Z,13.33
2023-03-18T09:39:23.233Z,13.60
2023-03-18T09:42:10.997Z,12.30
2023-03-18T09:44:41.080Z,12.67
2023-03-18T09:47:14.636Z,12.47
2023-03-18T09:50:21.473Z,13.90
2023-03-18T09:53:18.779Z,12.13
2023-03-18T09:55:50.753Z,12.87
2023-03-18T09:58:33.068Z,13.37
2023-03-18T10:01:05.579Z,11.40
2023-03-18T10:03:47.054Z,12.33
2023-03-18T10:06:17.765Z,11.63
2023-03-18T10:09:11.847Z,11.47
2023-03-18T10:11:44.811Z,11.80
2023-03-18T10:14:23.857Z,12.47
2023-03-18T10:17:47.098Z,11.50
2023-03-18T10:20:19.755Z,10.83
2023-03-18T10:22:58.063Z,11.67
2023-03-18T10:25:49.172Z,11.60
2023-03-18T10:28:49.382Z,12.57
2023-03-18T10:31:32.156Z,11.30
2023-03-18T10:34:02.203Z,12.37
2023-03-18T10:37:03.224Z,11.00
2023-03-18T10:39:33.772Z,12.90
2023-03-18T10:42:11.468Z,11.87
2023-03-18T10:44:41.707Z,10.63
2023-03-18T10:47:38.592Z,12.73
2023-03-18T10:50:18.670Z,13.57
2023-03-18T10:53:32.270Z,12.53
2023-03-18T10:56:08.084Z,11.50
2023-03-18T10:58:36.239Z,13.33
2023-03-18T11:01:04.425Z,12.60
2023-03-18T11:03:42.730Z,13.20
2023-03-18T11:06:23.954Z,10.87
2023-03-18T11:09:02.504Z,13.30
2023-03-18T11:11:34.783Z,13.23
2023-03-18T11:14:05.781Z,12.93
2023-03-18T11:20:53.642Z,12.23
2023-03-18T11:28:10.068Z,13.70
2023-03-18T11:38:01.820Z,17.00
2023-03-18T11:40:47.693Z,14.00
2023-03-18T11:47:08.582Z,11.00
2023-03-18T11:49:42.920Z,10.97
2023-03-18T12:03:19.752Z,12.17
2023-03-18T12:06:09.742Z,10.93
2023-03-18T12:08:50.005Z,14.00
2023-03-18T12:11:39.961Z,9.93
2023-03-18T12:14:27.279Z,11.67
2023-03-18T12:17:07.668Z,11.80
2023-03-18T12:19:59.317Z,12.33
2023-03-18T12:22:48.983Z,11.80
2023-03-18T12:25:53.135Z,11.80
2023-03-18T12:28:46.875Z,10.17
2023-03-18T12:31:36.471Z,12.07
2023-03-18T12:34:05.073Z,10.50
2023-03-18T12:36:55.340Z,12.17
2023-03-18T12:39:53.804Z,12.63
2023-03-18T12:43:02.878Z,11.23
2023-03-18T12:45:47.882Z,12.83
2023-03-18T12:48:43.530Z,13.03
2023-03-18T12:51:18.399Z,8.17
2023-03-18T12:53:52.875Z,13.70
2023-03-18T12:56:25.984Z,12.57
2023-03-18T12:59:01.098Z,15.10
2023-03-18T13:01:53.193Z,13.77
2023-03-18T13:04:23.586Z,15.27
2023-03-18T13:07:17.238Z,13.77
2023-03-18T13:10:23.902Z,14.07
2023-03-18T13:13:00.013Z,16.17
2023-03-18T13:15:48.135Z,15.07
2023-03-18T13:18:32.168Z,15.40
2023-03-18T13:21:01.230Z,9.57
2023-03-18T13:23:58.230Z,13.77
2023-03-18T13:26:39.614Z,13.07
2023-03-18T13:29:21.691Z,16.47
2023-03-18T13:32:18.227Z,15.63
2023-03-18T13:35:16.111Z,15.73
2023-03-18T13:38:01.027Z,16.33
2023-03-18T13:40:59.570Z,14.73
2023-03-18T13:43:28.924Z,15.13
2023-03-18T13:45:58.847Z,11.57
2023-03-18T13:48:36.014Z,13.97
2023-03-18T13:51:23.692Z,14.23
2023-03-18T13:53:53.460Z,14.73
2023-03-18T13:56:28.550Z,13.67
2023-03-18T13:58:55.954Z,14.30
2023-03-18T14:01:33.210Z,14.37
2023-03-18T14:04:30.637Z,15.87
2023-03-18T14:07:12.697Z,11.67
2023-03-18T14:09:51.673Z,13.07
2023-03-18T14:12:47.576Z,15.57
2023-03-18T14:15:34.898Z,16.23
2023-03-18T14:18:02.217Z,12.53
2023-03-18T14:20:42.343Z,13.97
2023-03-18T14:23:49.987Z,14.80
2023-03-18T14:26:21.609Z,16.43
2023-03-18T14:29:02.843Z,14.90
2023-03-18T14:31:34.922Z,12.90
2023-03-18T14:34:14.891Z,10.67
2023-03-18T14:36:47.094Z,15.50
2023-03-18T14:39:41.352Z,14.80
2023-03-18T14:42:27.477Z,14.27
2023-03-18T14:45:20.885Z,14.40
2023-03-18T14:48:10.807Z,14.73
2023-03-18T14:51:08.985Z,14.87
2023-03-18T15:00:32.080Z,12.10
2023-03-18T15:42:06.492Z,16.00
2023-03-18T16:04:28.712Z,16.23
2023-03-18T16:07:51.240Z,13.77
2023-03-18T16:10:48.530Z,16.60
2023-03-18T16:16:38.701Z,15.07
2023-03-18T16:27:29.979Z,15.10
2023-03-18T16:29:34.944Z,14.97
2023-03-18T16:32:04.793Z,16.00
2023-03-18T16:35:26.091Z,17.30
2023-03-18T16:44:22.848Z,16.90
2023-03-18T16:47:32.576Z,16.43
2023-03-18T16:50:32.797Z,15.10
2023-03-18T16:53:29.367Z,15.80
2023-03-18T16:56:54.499Z,16.37
2023-03-18T16:59:39.877Z,14.77
2023-03-18T17:06:22.001Z,15.50
2023-03-18T17:29:44.170Z,15.87
2023-03-18T17:32:51.181Z,15.77
2023-03-18T17:39:16.210Z,16.03
2023-03-18T17:42:04.551Z,14.80
2023-03-18T17:46:09.866Z,14.97
2023-03-18T18:25:28.345Z,16.37
2023-03-18T18:27:55.659Z,17.33
2023-03-18T18:30:26.217Z,18.40
2023-03-18T18:32:53.884Z,19.33
2023-03-18T18:35:23.047Z,19.43
2023-03-18T18:37:50.473Z,19.07
2023-03-18T18:40:19.164Z,18.97
2023-03-18T18:42:51.250Z,18.60
2023-03-18T18:45:21.240Z,18.50
2023-03-18T18:47:48.322Z,19.07
2023-03-18T18:50:18.459Z,18.73
2023-03-18T18:52:45.958Z,18.97
2023-03-18T18:55:14.318Z,19.57
2023-03-18T18:57:44.967Z,18.93
2023-03-18T19:00:23.616Z,19.33
2023-03-18T19:02:56.384Z,21.93
2023-03-18T19:05:26.494Z,20.10
2023-03-18T19:07:53.864Z,20.50
2023-03-18T19:10:21.520Z,19.83
2023-03-18T19:12:48.797Z,18.50
2023-03-18T19:15:16.323Z,20.40
2023-03-18T19:17:43.664Z,20.17
2023-03-18T19:20:28.126Z,21.47
2023-03-18T19:22:59.588Z,21.23
2023-03-18T19:25:27.177Z,20.67
2023-03-18T19:27:55.927Z,20.47
2023-03-18T19:30:27.859Z,20.07
2023-03-18T19:33:00.118Z,21.93
2023-03-18T19:35:27.649Z,20.97
2023-03-18T19:37:55.139Z,22.03
2023-03-18T19:40:31.047Z,19.23
2023-03-18T19:42:58.234Z,21.67
2023-03-18T19:45:25.695Z,21.13
2023-03-18T19:47:56.212Z,20.50
2023-03-18T19:50:23.550Z,19.93
2023-03-18T19:52:51.071Z,21.67
2023-03-18T19:55:18.466Z,21.40
2023-03-18T19:57:48.835Z,22.70
2023-03-18T20:00:23.802Z,21.37
2023-03-18T20:02:51.384Z,21.43
2023-03-18T20:05:21.457Z,23.27
2023-03-18T20:07:50.621Z,22.13
2023-03-18T20:10:21.611Z,21.70
2023-03-18T20:12:50.816Z,22.07
2023-03-18T20:15:29.567Z,22.13
2023-03-18T20:17:58.317Z,21.67
2023-03-18T20:20:34.519Z,22.43
2023-03-18T20:23:12.332Z,21.60
2023-03-18T20:25:46.263Z,21.57
2023-03-18T20:28:21.615Z,20.67
2023-03-18T20:30:52.889Z,22.97
2023-03-18T20:33:23.397Z,22.33
2023-03-18T20:35:53.022Z,22.27
2023-03-18T20:38:37.026Z,21.63
2023-03-18T20:41:05.624Z,20.83
2023-03-18T20:43:33.285Z,20.00
2023-03-18T20:46:02.605Z,20.67
2023-03-18T20:48:30.539Z,22.70
2023-03-18T20:50:58.464Z,20.93
2023-03-18T20:53:29.156Z,22.23
2023-03-18T20:55:59.595Z,21.53
2023-03-18T20:58:28.266Z,21.33
2023-03-18T21:00:57.812Z,22.90
2023-03-18T21:03:28.352Z,22.83
2023-03-18T21:06:00.240Z,20.80
2023-03-18T21:08:31.202Z,20.00
2023-03-18T21:11:02.025Z,21.63
2023-03-18T21:13:42.948Z,21.27
2023-03-18T21:16:16.776Z,21.53
2023-03-18T21:18:46.370Z,21.77
2023-03-18T21:21:37.858Z,23.13
2023-03-18T21:24:26.482Z,22.33
2023-03-18T21:27:04.107Z,21.47
2023-03-18T21:29:32.832Z,23.07
2023-03-18T21:32:00.306Z,22.50
2023-03-18T21:34:27.992Z,22.63
2023-03-18T21:36:55.303Z,24.07
2023-03-18T21:39:22.543Z,23.13
2023-03-18T21:41:49.763Z,22.03
2023-03-18T21:44:19.794Z,24.40
2023-03-18T21:46:50.063Z,22.00
2023-03-18T21:49:17.423Z,20.77
2023-03-18T21:51:47.646Z,20.23
2023-03-18T21:54:19.010Z,19.67
2023-03-18T21:56:49.013Z,21.27
2023-03-18T21:59:17.495Z,19.77
2023-03-18T22:01:44.907Z,19.80
2023-03-18T22:04:12.674Z,20.23
2023-03-18T22:06:40.049Z,19.60
2023-03-18T22:09:08.890Z,22.17
2023-03-18T22:11:36.298Z,20.77
2023-03-18T22:14:03.676Z,22.00
2023-03-18T22:16:30.891Z,22.20
2023-03-18T22:18:58.095Z,20.97
2023-03-18T22:21:27.731Z,20.20
2023-03-18T22:23:55.853Z,22.10
2023-03-18T22:26:23.422Z,20.93
2023-03-18T22:28:51.018Z,20.13
2023-03-18T22:31:18.169Z,20.50
2023-03-18T22:33:45.914Z,20.87
2023-03-18T22:36:17.498Z,21.50
2023-03-18T22:38:44.795Z,21.30
2023-03-18T22:41:32.218Z,20.90
2023-03-18T22:44:00.400Z,20.37
2023-03-18T22:46:28.569Z,20.50
2023-03-18T22:48:58.910Z,21.67
2023-03-18T22:51:31.391Z,20.47
2023-03-18T22:53:58.791Z,20.13
2023-03-18T22:56:26.596Z,18.73
2023-03-18T22:58:53.661Z,20.27
2023-03-18T23:01:26.873Z,17.83
2023-03-18T23:03:54.402Z,17.83
2023-03-18T23:06:24.060Z,17.80
2023-03-18T23:08:51.626Z,18.10
2023-03-18T23:11:18.901Z,19.53
2023-03-18T23:13:50.230Z,19.47
2023-03-18T23:16:21.116Z,19.03
2023-03-18T23:18:49.569Z,19.73
2023-03-18T23:21:22.713Z,18.27
2023-03-18T23:23:50.446Z,19.37
2023-03-18T23:26:18.220Z,18.43
2023-03-18T23:28:46.080Z,17.60
2023-03-18T23:31:15.166Z,18.27
2023-03-18T23:33:45.865Z,20.00
2023-03-18T23:36:13.315Z,19.00
2023-03-18T23:38:40.755Z,18.50
2023-03-18T23:41:08.346Z,19.03
2023-03-18T23:43:38.681Z,15.73
2023-03-18T23:46:06.409Z,16.73
2023-03-18T23:48:33.613Z,17.80
2023-03-18T23:51:00.946Z,19.67
2023-03-18T23:53:28.034Z,18.47
2023-03-18T23:55:55.104Z,19.30
2023-03-18T23:58:25.339Z,17.77
